カンザスシティ の空港の天気 - METARとTAF

カンザスシティ国際空港 ( KMCI / MCI ) - アメリカ ミズーリ州カンザスシティ
飛行場実況気象(Metar)
観測時間08/17 06:19 CDT (08/17 11:19 UTC)
風向・風速北北東 3m/s
視程4850m
天気現象雷雨 もや
全天の4割程度の雲 雲底高度 1280m
全天を覆う雲 雲底高度 2290m
気温19.4℃
湿度100%
気圧1015hPa
METARKMCI 171119Z 02006KT 3SM TSRA BR SCT042CB OVC075 19/19 A2998 RMK AO2 LTG DSNT ALQDS TSB13 TS OHD MOV E P0013 T01940194 $
過去の天気等 Google飛行場航空写真 Wunderground天気予報

過去48時間のMETAR

飛行場予報(TAF)
発表時間: 8/17 06:35 CDT (8/17 11:35 UTC)
予報対象時間: 17日7時 CDT ~ 18日7時 CDT
風向・風速北北東 3m/s
視程10km以上
天気現象弱い雨 周辺で雷
全天の4割程度の積乱雲 雲底高度 1220m
全天を覆う雲 雲底高度 2440m
17日7時 CDT ~ 17日9時 CDT に一時的に
視程4830m
天気現象弱い雷雨
全天の8割程度の積乱雲 雲底高度 1220m
17日9時 CDT から
風向・風速南南東 4m/s
視程10km以上
全天の8割程度の雲 雲底高度 1370m
17日13時 CDT から
風向・風速南 4m/s
視程10km以上
全天の4割程度の雲 雲底高度 1830m
17日21時 CDT から
風向・風速南 4m/s
視程10km以上
天気現象周辺で雷
全天の4割程度の積乱雲 雲底高度 3050m
KMCI 171135Z 1712/1812 02006KT P6SM -RA VCTS SCT040CB OVC080
TEMPO 1712/1714 3SM -TSRA BKN040CB
FM171400 15007KT P6SM BKN045
FM171800 18008KT P6SM SCT060
FM180200 17008KT P6SM VCTS SCT100CB